createdAt,value
2023-04-18T00:00:18.713Z,20.63
2023-04-18T00:02:46.339Z,22.25
2023-04-18T00:05:18.145Z,21.35
2023-04-18T00:07:46.205Z,21.83
2023-04-18T00:10:14.089Z,21.48
2023-04-18T00:12:43.014Z,20.98
2023-04-18T00:15:11.616Z,20.95
2023-04-18T00:17:39.732Z,20.05
2023-04-18T00:20:12.757Z,20.98
2023-04-18T00:22:45.132Z,18.55
2023-04-18T00:25:12.781Z,18.88
2023-04-18T00:27:41.334Z,19.13
2023-04-18T00:30:09.452Z,18.45
2023-04-18T00:32:38.736Z,19.65
2023-04-18T00:35:06.815Z,17.52
2023-04-18T00:37:34.395Z,16.65
2023-04-18T00:40:02.074Z,17.83
2023-04-18T00:42:29.655Z,18.33
2023-04-18T00:44:57.380Z,20.27
2023-04-18T00:47:25.197Z,18.52
2023-04-18T00:49:53.034Z,19.33
2023-04-18T00:52:21.180Z,17.77
2023-04-18T00:54:48.872Z,17.77
2023-04-18T00:57:16.813Z,18.15
2023-04-18T00:59:46.455Z,18.52
2023-04-18T01:02:14.070Z,17.95
2023-04-18T01:04:43.603Z,19.85
2023-04-18T01:07:11.713Z,19.70
2023-04-18T01:09:40.234Z,17.55
2023-04-18T01:12:07.838Z,16.80
2023-04-18T01:14:35.508Z,17.40
2023-04-18T01:17:04.172Z,16.13
2023-04-18T01:19:31.794Z,18.10
2023-04-18T01:21:59.797Z,18.33
2023-04-18T01:24:29.774Z,16.92
2023-04-18T01:26:57.438Z,17.25
2023-04-18T01:29:26.029Z,17.02
2023-04-18T01:31:53.808Z,17.20
2023-04-18T01:34:21.400Z,16.63
2023-04-18T01:36:49.121Z,17.45
2023-04-18T01:39:18.388Z,17.80
2023-04-18T01:41:46.711Z,18.60
2023-04-18T01:44:14.513Z,18.85
2023-04-18T01:46:42.303Z,17.00
2023-04-18T01:49:10.409Z,16.40
2023-04-18T01:51:39.001Z,17.10
2023-04-18T01:54:06.588Z,17.63
2023-04-18T01:56:34.081Z,17.40
2023-04-18T01:59:02.675Z,18.25
2023-04-18T02:01:30.453Z,17.23
2023-04-18T02:03:59.760Z,18.83
2023-04-18T02:06:27.335Z,18.45
2023-04-18T02:08:54.876Z,16.75
2023-04-18T02:11:25.640Z,17.17
2023-04-18T02:13:53.252Z,16.92
2023-04-18T02:16:20.965Z,16.48
2023-04-18T02:18:49.775Z,18.70
2023-04-18T02:21:17.269Z,17.02
2023-04-18T02:23:44.843Z,17.85
2023-04-18T02:26:12.524Z,16.83
2023-04-18T02:28:40.143Z,18.58
2023-04-18T02:31:14.421Z,19.20
2023-04-18T02:33:47.494Z,18.73
2023-04-18T02:36:15.469Z,19.58
2023-04-18T02:38:43.383Z,19.73
2023-04-18T02:41:15.199Z,20.45
2023-04-18T02:43:42.933Z,21.00
2023-04-18T02:46:10.735Z,21.83
2023-04-18T02:48:38.539Z,21.35
2023-04-18T02:51:08.237Z,21.92
2023-04-18T02:53:37.883Z,22.20
2023-04-18T02:56:06.405Z,22.45
2023-04-18T02:59:03.146Z,20.55
2023-04-18T03:01:47.602Z,21.52
2023-04-18T03:04:18.634Z,21.52
2023-04-18T03:06:56.156Z,20.05
2023-04-18T03:09:23.943Z,20.15
2023-04-18T03:11:57.099Z,20.50
2023-04-18T03:14:27.788Z,20.40
2023-04-18T03:16:56.679Z,19.92
2023-04-18T03:19:29.060Z,21.13
2023-04-18T03:21:59.778Z,20.93
2023-04-18T03:24:28.110Z,20.88
2023-04-18T03:27:00.621Z,21.35
2023-04-18T03:29:28.652Z,21.50
2023-04-18T03:31:56.702Z,22.15
2023-04-18T03:34:24.314Z,20.20
2023-04-18T03:36:52.988Z,20.92
2023-04-18T03:39:20.621Z,20.38
2023-04-18T03:41:49.378Z,20.85
2023-04-18T03:44:17.114Z,20.92
2023-04-18T03:46:45.036Z,20.23
2023-04-18T03:49:12.883Z,21.13
2023-04-18T03:51:47.261Z,20.65
2023-04-18T03:54:15.983Z,19.50
2023-04-18T03:56:44.277Z,20.90
2023-04-18T03:59:12.729Z,21.63
2023-04-18T04:01:43.213Z,18.60
2023-04-18T04:04:12.208Z,20.92
2023-04-18T04:06:40.529Z,20.08
2023-04-18T04:09:08.401Z,20.73
2023-04-18T04:11:36.224Z,20.80
2023-04-18T04:14:04.528Z,21.10
2023-04-18T04:16:39.352Z,21.05
2023-04-18T04:19:07.700Z,21.98
2023-04-18T04:21:42.440Z,22.25
2023-04-18T04:24:13.930Z,22.33
2023-04-18T04:26:50.858Z,23.30
2023-04-18T04:29:23.749Z,24.20
2023-04-18T04:31:53.042Z,22.70
2023-04-18T04:34:31.664Z,23.85
2023-04-18T04:37:01.557Z,24.13
2023-04-18T04:39:30.809Z,24.73
2023-04-18T04:42:09.708Z,23.17
2023-04-18T04:44:47.343Z,23.52
2023-04-18T04:47:16.325Z,26.35
2023-04-18T04:49:44.820Z,22.30
2023-04-18T04:52:12.359Z,24.80
2023-04-18T04:54:40.819Z,25.35
2023-04-18T04:57:12.194Z,26.73
2023-04-18T04:59:40.791Z,24.23
2023-04-18T05:02:08.645Z,25.70
2023-04-18T05:04:37.238Z,24.77
2023-04-18T05:07:06.136Z,24.75
2023-04-18T05:09:33.667Z,24.92
2023-04-18T05:12:01.914Z,24.63
2023-04-18T05:14:29.764Z,25.67
2023-04-18T05:16:57.368Z,25.63
2023-04-18T05:19:24.927Z,26.08
2023-04-18T05:21:52.482Z,27.55
2023-04-18T05:24:20.038Z,26.90
2023-04-18T05:26:54.262Z,27.67
2023-04-18T05:29:21.920Z,30.60
2023-04-18T05:31:49.431Z,29.70
2023-04-18T05:34:17.090Z,30.25
2023-04-18T05:36:44.709Z,29.55
2023-04-18T05:39:12.356Z,29.98
2023-04-18T05:41:39.961Z,28.95
2023-04-18T05:44:07.444Z,29.23
2023-04-18T05:46:35.331Z,29.67
2023-04-18T05:49:03.643Z,28.30
2023-04-18T05:51:32.076Z,27.63
2023-04-18T05:53:59.866Z,28.08
2023-04-18T05:56:27.470Z,27.83
2023-04-18T05:58:55.036Z,28.05
2023-04-18T06:01:22.978Z,25.80
2023-04-18T06:03:50.862Z,27.38
2023-04-18T06:06:18.767Z,24.23
2023-04-18T06:08:46.286Z,27.73
2023-04-18T06:11:15.352Z,23.98
2023-04-18T06:13:43.423Z,24.05
2023-04-18T06:16:11.074Z,23.98
2023-04-18T06:18:39.018Z,23.20
2023-04-18T06:21:06.778Z,23.85
2023-04-18T06:23:34.291Z,24.80
2023-04-18T06:26:03.023Z,22.50
2023-04-18T06:28:30.666Z,22.98
2023-04-18T06:30:58.156Z,21.27
2023-04-18T06:33:25.823Z,20.75
2023-04-18T06:35:53.434Z,22.10
2023-04-18T06:38:21.175Z,21.40
2023-04-18T06:40:48.888Z,19.50
2023-04-18T06:43:16.411Z,21.17
2023-04-18T06:45:46.050Z,19.20
2023-04-18T06:48:13.939Z,18.73
2023-04-18T06:50:41.451Z,19.15
2023-04-18T06:53:08.947Z,16.73
2023-04-18T06:55:36.467Z,19.75
2023-04-18T06:58:05.498Z,19.45
2023-04-18T07:00:33.002Z,18.98
2023-04-18T07:03:02.158Z,19.77
2023-04-18T07:05:29.821Z,18.63
2023-04-18T07:07:57.412Z,17.60
2023-04-18T07:10:25.029Z,17.58
2023-04-18T07:12:52.624Z,16.60
2023-04-18T07:15:20.150Z,16.65
2023-04-18T07:17:47.761Z,17.60
2023-04-18T07:20:16.155Z,17.52
2023-04-18T07:22:43.785Z,19.40
2023-04-18T07:25:11.371Z,18.67
2023-04-18T07:27:38.974Z,19.23
2023-04-18T07:30:07.223Z,19.85
2023-04-18T07:32:34.871Z,17.95
2023-04-18T07:35:04.215Z,19.98
2023-04-18T07:37:31.909Z,20.95
2023-04-18T07:39:59.454Z,21.67
2023-04-18T07:42:27.213Z,19.13
2023-04-18T07:44:58.974Z,20.58
2023-04-18T07:47:29.805Z,19.73
2023-04-18T07:49:58.496Z,21.48
2023-04-18T07:52:26.514Z,21.35
2023-04-18T07:54:54.059Z,21.42
2023-04-18T07:57:21.744Z,19.23
2023-04-18T07:59:53.108Z,20.70
2023-04-18T08:02:21.538Z,20.13
2023-04-18T08:04:50.191Z,21.95
2023-04-18T08:07:18.019Z,23.35
2023-04-18T08:09:45.925Z,22.52
2023-04-18T08:12:13.619Z,23.05
2023-04-18T08:14:41.754Z,22.85
2023-04-18T08:17:09.411Z,22.50
2023-04-18T08:19:36.998Z,22.35
2023-04-18T08:22:09.568Z,22.85
2023-04-18T08:24:40.120Z,21.10
2023-04-18T08:27:07.805Z,21.95
2023-04-18T08:29:35.542Z,22.52
2023-04-18T08:32:06.339Z,21.65
2023-04-18T08:34:36.504Z,19.73
2023-04-18T08:37:04.346Z,20.63
2023-04-18T08:39:31.938Z,21.38
2023-04-18T08:42:00.602Z,21.67
2023-04-18T08:44:29.336Z,21.27
2023-04-18T08:46:57.687Z,18.42
2023-04-18T08:49:25.689Z,21.17
2023-04-18T08:51:53.338Z,20.17
2023-04-18T08:54:22.544Z,19.55
2023-04-18T08:57:12.501Z,19.77
2023-04-18T08:59:43.156Z,18.67
2023-04-18T09:02:12.816Z,18.42
2023-04-18T09:04:45.367Z,18.35
2023-04-18T09:07:15.085Z,18.95
2023-04-18T09:09:46.229Z,18.55
2023-04-18T09:12:18.277Z,17.48
2023-04-18T09:14:47.794Z,16.88
2023-04-18T09:17:30.254Z,16.73
2023-04-18T09:19:58.822Z,14.77
2023-04-18T09:22:26.458Z,13.80
2023-04-18T09:24:57.501Z,15.38
2023-04-18T09:27:25.087Z,14.23
2023-04-18T09:29:55.857Z,14.95
2023-04-18T09:32:27.436Z,14.23
2023-04-18T09:35:04.006Z,15.80
2023-04-18T09:37:32.356Z,15.10
2023-04-18T09:39:59.890Z,12.95
2023-04-18T09:42:35.769Z,13.25
2023-04-18T09:45:07.801Z,13.52
2023-04-18T09:47:36.820Z,12.30
2023-04-18T09:50:06.075Z,13.90
2023-04-18T09:52:38.718Z,13.63
2023-04-18T09:55:13.922Z,13.15
2023-04-18T09:57:45.539Z,11.65
2023-04-18T10:00:20.188Z,12.85
2023-04-18T10:02:49.414Z,12.80
2023-04-18T10:05:21.003Z,11.27
2023-04-18T10:07:50.899Z,12.02
2023-04-18T10:10:18.681Z,12.05
2023-04-18T10:12:48.517Z,11.88
2023-04-18T10:15:17.408Z,10.68
2023-04-18T10:18:03.785Z,10.98
2023-04-18T10:20:35.067Z,11.18
2023-04-18T10:23:39.949Z,10.18
2023-04-18T10:26:09.007Z,10.88
2023-04-18T10:28:59.559Z,9.57
2023-04-18T10:31:29.330Z,10.73
2023-04-18T10:34:05.331Z,10.82
2023-04-18T10:36:33.727Z,10.23
2023-04-18T10:39:23.606Z,9.00
2023-04-18T10:41:51.823Z,9.73
2023-04-18T10:44:22.798Z,9.00
2023-04-18T10:49:20.607Z,9.05
2023-04-18T10:51:53.080Z,8.82
2023-04-18T10:54:30.826Z,9.73
2023-04-18T10:57:00.068Z,9.63
2023-04-18T10:59:30.314Z,9.60
2023-04-18T11:02:05.418Z,9.30
2023-04-18T11:04:33.069Z,9.75
2023-04-18T11:07:01.370Z,10.20
2023-04-18T11:09:28.928Z,10.82
2023-04-18T11:12:10.081Z,8.52
2023-04-18T11:14:47.870Z,11.27
2023-04-18T11:17:23.834Z,8.68
2023-04-18T11:20:00.604Z,9.93
2023-04-18T11:22:28.409Z,10.00
2023-04-18T11:25:08.006Z,11.38
2023-04-18T11:27:35.764Z,11.50
2023-04-18T11:30:03.609Z,10.70
2023-04-18T11:32:31.317Z,11.05
2023-04-18T11:34:59.014Z,10.77
2023-04-18T11:37:26.685Z,10.25
2023-04-18T11:39:54.369Z,10.30
2023-04-18T11:42:26.531Z,9.77
2023-04-18T11:44:54.595Z,10.23
2023-04-18T11:47:22.889Z,10.40
2023-04-18T11:49:57.379Z,11.07
2023-04-18T11:52:26.537Z,10.73
2023-04-18T11:54:54.585Z,9.93
2023-04-18T11:57:26.278Z,10.48
2023-04-18T11:59:59.047Z,10.43
2023-04-18T12:02:38.969Z,11.60
2023-04-18T12:05:07.333Z,11.68
2023-04-18T12:07:42.160Z,11.10
2023-04-18T12:10:24.445Z,10.85
2023-04-18T12:12:58.592Z,10.45
2023-04-18T12:15:28.684Z,10.70
2023-04-18T12:18:04.824Z,11.65
2023-04-18T12:20:46.385Z,10.90
2023-04-18T12:23:33.824Z,11.20
2023-04-18T12:26:06.272Z,10.15
2023-04-18T12:28:35.449Z,10.57
2023-04-18T12:31:05.538Z,10.68
2023-04-18T12:33:33.802Z,9.85
2023-04-18T12:36:01.361Z,9.80
2023-04-18T12:38:28.934Z,9.50
2023-04-18T12:40:56.523Z,10.93
2023-04-18T12:43:24.065Z,10.35
2023-04-18T12:45:51.625Z,9.13
2023-04-18T12:48:19.150Z,8.35
2023-04-18T12:50:46.678Z,8.80
2023-04-18T12:53:14.165Z,8.32
2023-04-18T12:55:41.754Z,8.70
2023-04-18T12:58:09.224Z,9.32
2023-04-18T13:00:37.257Z,8.68
2023-04-18T13:03:05.110Z,9.70
2023-04-18T13:05:34.067Z,8.93
2023-04-18T13:08:15.222Z,9.35
2023-04-18T13:10:48.176Z,7.80
2023-04-18T13:13:15.911Z,8.07
2023-04-18T13:15:43.658Z,7.88
2023-04-18T13:18:11.295Z,8.85
2023-04-18T13:20:38.846Z,8.43
2023-04-18T13:23:06.399Z,6.72
2023-04-18T13:25:33.955Z,5.97
2023-04-18T13:28:01.701Z,6.60
2023-04-18T13:30:29.392Z,6.72
2023-04-18T13:32:57.035Z,6.00
2023-04-18T13:35:24.656Z,6.55
2023-04-18T13:37:52.148Z,6.55
2023-04-18T13:40:19.810Z,6.10
2023-04-18T13:42:47.387Z,6.35
2023-04-18T13:45:14.878Z,6.10
2023-04-18T13:47:42.491Z,6.60
2023-04-18T13:50:10.929Z,6.35
2023-04-18T13:52:38.454Z,7.93
2023-04-18T13:55:06.766Z,6.43
2023-04-18T13:57:34.652Z,6.07
2023-04-18T14:00:02.329Z,6.13
2023-04-18T14:02:41.417Z,5.65
2023-04-18T14:05:09.816Z,6.45
2023-04-18T14:07:38.427Z,6.05
2023-04-18T14:10:06.673Z,5.68
2023-04-18T14:12:34.632Z,6.00
2023-04-18T14:15:02.372Z,5.75
2023-04-18T14:17:31.067Z,6.22
2023-04-18T14:19:58.725Z,6.53
2023-04-18T14:22:26.972Z,5.88
2023-04-18T14:24:56.178Z,6.45
2023-04-18T14:27:26.143Z,5.82
2023-04-18T14:29:54.107Z,7.13
2023-04-18T14:32:21.727Z,6.15
2023-04-18T14:34:49.474Z,6.70
2023-04-18T14:37:17.741Z,6.85
2023-04-18T14:39:46.148Z,6.15
2023-04-18T14:42:13.817Z,6.40
2023-04-18T14:44:41.545Z,6.05
2023-04-18T14:47:09.453Z,6.75
2023-04-18T14:49:37.020Z,7.03
2023-04-18T14:52:05.007Z,6.32
2023-04-18T14:54:32.876Z,6.82
2023-04-18T14:57:01.148Z,6.63
2023-04-18T14:59:28.891Z,6.88
2023-04-18T15:01:56.565Z,7.30
2023-04-18T15:04:24.355Z,7.20
2023-04-18T15:06:51.958Z,6.65
2023-04-18T15:09:19.516Z,6.07
2023-04-18T15:11:47.024Z,6.90
2023-04-18T15:14:14.594Z,6.38
2023-04-18T15:16:42.285Z,7.28
2023-04-18T15:19:09.960Z,6.22
2023-04-18T15:21:37.450Z,5.97
2023-04-18T15:24:05.501Z,7.13
2023-04-18T15:26:33.416Z,6.32
2023-04-18T15:29:04.573Z,6.55
2023-04-18T15:34:00.312Z,6.63
2023-04-18T15:36:28.747Z,6.88
2023-04-18T15:38:56.361Z,7.32
2023-04-18T15:41:24.116Z,6.93
2023-04-18T15:43:52.923Z,6.60
2023-04-18T15:46:20.526Z,6.72
2023-04-18T15:48:48.208Z,7.55
2023-04-18T15:51:15.734Z,7.10
2023-04-18T15:53:43.390Z,6.50
2023-04-18T15:56:11.030Z,6.13
2023-04-18T15:58:38.550Z,6.32
2023-04-18T16:01:06.126Z,6.47
2023-04-18T16:03:33.922Z,6.75
2023-04-18T16:06:01.610Z,7.47
2023-04-18T16:08:31.326Z,7.97
2023-04-18T16:11:00.258Z,7.22
2023-04-18T16:13:27.835Z,6.63
2023-04-18T16:15:55.407Z,6.90
2023-04-18T16:18:23.275Z,6.32
2023-04-18T16:20:51.815Z,6.88
2023-04-18T16:23:20.541Z,6.28
2023-04-18T16:25:48.551Z,7.28
2023-04-18T16:28:16.276Z,6.60
2023-04-18T16:30:45.726Z,7.43
2023-04-18T16:33:13.430Z,6.20
2023-04-18T16:35:41.241Z,7.05
2023-04-18T16:38:08.879Z,7.70
2023-04-18T16:40:36.875Z,5.90
2023-04-18T16:43:04.429Z,6.38
2023-04-18T16:45:32.681Z,6.65
2023-04-18T16:48:00.376Z,6.57
2023-04-18T16:50:28.026Z,6.43
2023-04-18T16:52:55.654Z,6.43
2023-04-18T16:55:23.303Z,6.82
2023-04-18T16:57:50.910Z,6.63
2023-04-18T17:00:19.049Z,7.00
2023-04-18T17:02:47.175Z,6.20
2023-04-18T17:05:14.929Z,6.78
2023-04-18T17:07:44.064Z,6.85
2023-04-18T17:10:11.883Z,6.32
2023-04-18T17:12:39.450Z,7.43
2023-04-18T17:15:07.544Z,6.75
2023-04-18T17:17:35.676Z,6.70
2023-04-18T17:20:06.992Z,7.30
2023-04-18T17:22:34.953Z,6.53
2023-04-18T17:25:03.039Z,7.45
2023-04-18T17:27:39.406Z,6.70
2023-04-18T17:30:07.518Z,6.40
2023-04-18T17:32:35.330Z,6.32
2023-04-18T17:35:06.105Z,6.32
2023-04-18T17:37:33.914Z,5.72
2023-04-18T17:40:06.088Z,6.53
2023-04-18T17:42:34.580Z,7.07
2023-04-18T17:45:03.752Z,5.78
2023-04-18T17:47:33.486Z,6.25
2023-04-18T17:50:01.291Z,5.82
2023-04-18T17:52:28.880Z,6.18
2023-04-18T17:54:56.992Z,6.45
2023-04-18T17:57:26.715Z,6.03
2023-04-18T17:59:54.218Z,6.70
2023-04-18T18:02:23.412Z,7.07
2023-04-18T18:04:51.660Z,7.38
2023-04-18T18:07:19.449Z,6.25
2023-04-18T18:09:46.976Z,6.07
2023-04-18T18:12:14.649Z,6.85
2023-04-18T18:14:42.147Z,6.28
2023-04-18T18:17:09.965Z,7.43
2023-04-18T18:19:37.861Z,6.45
2023-04-18T18:22:05.666Z,6.78
2023-04-18T18:24:33.332Z,7.00
2023-04-18T18:27:01.875Z,7.13
2023-04-18T18:29:29.503Z,6.55
2023-04-18T18:31:57.049Z,7.22
2023-04-18T18:34:24.603Z,6.82
2023-04-18T18:36:52.147Z,6.95
2023-04-18T18:39:20.030Z,6.35
2023-04-18T18:41:47.562Z,7.07
2023-04-18T18:44:15.075Z,6.05
2023-04-18T18:46:43.385Z,6.35
2023-04-18T18:49:11.235Z,5.95
2023-04-18T18:51:38.830Z,5.85
2023-04-18T18:54:06.446Z,5.90
2023-04-18T18:56:34.003Z,6.00
2023-04-18T18:59:01.789Z,5.85
2023-04-18T19:01:30.282Z,5.28
2023-04-18T19:03:58.039Z,5.95
2023-04-18T19:06:26.530Z,5.10
2023-04-18T19:08:54.361Z,5.05
2023-04-18T19:11:21.913Z,4.32
2023-04-18T19:13:52.143Z,4.93
2023-04-18T19:16:19.801Z,4.25
2023-04-18T19:18:49.178Z,4.80
2023-04-18T19:21:17.310Z,4.90
2023-04-18T19:23:45.098Z,4.80
2023-04-18T19:26:12.818Z,4.80
2023-04-18T19:28:41.378Z,4.70
2023-04-18T19:31:09.644Z,4.57
2023-04-18T19:33:38.112Z,4.28
2023-04-18T19:36:05.902Z,4.93
2023-04-18T19:38:34.643Z,4.90
2023-04-18T19:41:02.227Z,5.25
2023-04-18T19:43:29.756Z,5.22
2023-04-18T19:45:57.708Z,4.88
2023-04-18T19:48:25.312Z,4.85
2023-04-18T19:50:53.081Z,5.00
2023-04-18T19:53:21.010Z,4.85
2023-04-18T19:55:48.743Z,6.15
2023-04-18T19:58:39.762Z,5.60
2023-04-18T20:01:09.934Z,5.57
2023-04-18T20:03:38.725Z,5.50
2023-04-18T20:06:07.091Z,4.93
2023-04-18T20:08:36.387Z,6.70
2023-04-18T20:11:11.232Z,6.50
2023-04-18T20:13:38.930Z,6.35
2023-04-18T20:16:08.863Z,6.70
2023-04-18T20:18:41.743Z,6.38
2023-04-18T20:21:11.126Z,6.93
2023-04-18T20:23:40.509Z,7.40
2023-04-18T20:26:09.164Z,5.88
2023-04-18T20:28:38.018Z,6.93
2023-04-18T20:31:06.093Z,6.68
2023-04-18T20:33:34.344Z,6.57
2023-04-18T20:36:02.084Z,6.53
2023-04-18T20:38:29.897Z,6.47
2023-04-18T20:41:00.954Z,7.10
2023-04-18T20:43:28.640Z,7.22
2023-04-18T20:45:58.632Z,7.65
2023-04-18T20:48:26.271Z,6.82
2023-04-18T20:50:53.851Z,7.57
2023-04-18T20:53:25.102Z,6.75
2023-04-18T20:55:52.856Z,7.25
2023-04-18T20:58:20.684Z,7.93
2023-04-18T21:00:48.961Z,8.27
2023-04-18T21:03:16.845Z,7.53
2023-04-18T21:05:45.203Z,7.78
2023-04-18T21:08:12.844Z,7.65
2023-04-18T21:10:40.503Z,7.80
2023-04-18T21:13:09.254Z,7.78
2023-04-18T21:15:36.893Z,7.82
2023-04-18T21:18:04.509Z,7.45
2023-04-18T21:20:34.171Z,8.25
2023-04-18T21:23:01.898Z,8.55
2023-04-18T21:25:29.488Z,7.72
2023-04-18T21:27:57.004Z,8.02
2023-04-18T21:30:24.669Z,8.23
2023-04-18T21:32:52.297Z,8.50
2023-04-18T21:35:21.322Z,8.55
2023-04-18T21:37:50.328Z,9.60
2023-04-18T21:40:18.081Z,8.13
2023-04-18T21:42:46.183Z,7.93
2023-04-18T21:45:14.360Z,8.82
2023-04-18T21:47:41.927Z,8.27
2023-04-18T21:50:10.665Z,10.13
2023-04-18T21:52:38.223Z,9.07
2023-04-18T21:55:06.243Z,9.50
2023-04-18T21:57:33.771Z,9.02
2023-04-18T22:00:01.326Z,9.05
2023-04-18T22:02:29.083Z,10.63
2023-04-18T22:04:56.688Z,9.48
2023-04-18T22:07:24.636Z,10.02
2023-04-18T22:09:52.251Z,9.68
2023-04-18T22:12:19.766Z,10.60
2023-04-18T22:14:48.549Z,10.05
2023-04-18T22:17:16.163Z,10.98
2023-04-18T22:19:44.487Z,11.00
2023-04-18T22:22:12.120Z,11.23
2023-04-18T22:24:39.703Z,9.80
2023-04-18T22:27:07.238Z,11.35
2023-04-18T22:29:34.800Z,10.45
2023-04-18T22:32:02.648Z,11.43
2023-04-18T22:34:30.451Z,11.70
2023-04-18T22:36:57.982Z,10.57
2023-04-18T22:39:26.056Z,11.23
2023-04-18T22:41:53.543Z,12.65
2023-04-18T22:44:21.061Z,11.00
2023-04-18T22:46:48.674Z,11.73
2023-04-18T22:49:17.966Z,11.77
2023-04-18T22:51:46.379Z,11.88
2023-04-18T22:54:14.201Z,10.48
2023-04-18T22:56:42.439Z,11.90
2023-04-18T22:59:09.999Z,10.32
2023-04-18T23:01:37.751Z,11.52
2023-04-18T23:04:05.735Z,11.38
2023-04-18T23:06:33.618Z,12.40
2023-04-18T23:09:01.144Z,11.48
2023-04-18T23:11:28.684Z,11.20
2023-04-18T23:13:56.219Z,11.73
2023-04-18T23:16:23.899Z,13.25
2023-04-18T23:18:51.454Z,11.55
2023-04-18T23:21:18.999Z,11.90
2023-04-18T23:23:46.528Z,11.85
2023-04-18T23:26:14.842Z,12.35
2023-04-18T23:28:42.485Z,12.05
2023-04-18T23:31:10.162Z,10.95
2023-04-18T23:33:37.863Z,11.30
2023-04-18T23:36:06.532Z,11.63
2023-04-18T23:38:34.061Z,11.15
2023-04-18T23:41:01.782Z,12.05
2023-04-18T23:43:29.440Z,11.98
2023-04-18T23:45:56.986Z,11.25
2023-04-18T23:48:24.566Z,11.68
2023-04-18T23:50:53.095Z,11.50
2023-04-18T23:53:22.124Z,12.25
2023-04-18T23:55:51.110Z,11.18
2023-04-18T23:58:18.880Z,12.15
